Погода Ливраменту-ду-Брумадуна 2 недели

Баия, Бразилия

07 - 20 февраля
  • 07февраля
    Сегодня
    +19°
    +33°
    Облачно с прояснениями
    ВремяПогодаТемператураВлажностьДавлениеВетер, м/сВероятность осадков
    00:00Ясно и безоблачно+20°C67 %710 мм1.1 м/с5 %
    03:00Ясно и безоблачно+20°C77 %710 мм1.5 м/с4 %
    06:00Облачно с прояснениями+19°C89 %711 мм1.3 м/с3 %
    09:00Практически безоблачно+26°C63 %713 мм2.1 м/с4 %
    12:00Облачно с прояснениями+30°C39 %712 мм1.9 м/с3 %
    15:00Облачно с прояснениями+33°C34 %710 мм2.6 м/с5 %
    18:00Ясно и безоблачно+29°C40 %709 мм2.2 м/с5 %
    21:00Ясно и безоблачно+24°C57 %710 мм1.6 м/с5 %
  • 08февраля
    Среда
    +18°
    +33°
    Ясно и безоблачно
    ВремяПогодаТемператураВлажностьДавлениеВетер, м/сВероятность осадков
    00:00Ясно и безоблачно+21°C71 %711 мм1.6 м/с5 %
    03:00Ясно и безоблачно+20°C82 %710 мм1.8 м/с5 %
    06:00Ясно и безоблачно+20°C82 %711 мм1.7 м/с5 %
    09:00Ясно и безоблачно+26°C51 %712 мм2.1 м/с5 %
    12:00Ясно и безоблачно+30°C40 %711 мм2.1 м/с4 %
    15:00Ясно и безоблачно+33°C33 %710 мм1.7 м/с3 %
    18:00Ясно и безоблачно+29°C43 %709 мм1.9 м/с4 %
    21:00Ясно и безоблачно+24°C61 %710 мм1.7 м/с5 %
  • 09февраля
    Четверг
    +19°
    +34°
    Облачно с прояснениями
    ВремяПогодаТемператураВлажностьДавлениеВетер, м/сВероятность осадков
    00:00Ясно и безоблачно+21°C69 %711 мм1.7 м/с5 %
    03:00Ясно и безоблачно+20°C81 %710 мм1.6 м/с5 %
    06:00Ясно и безоблачно+19°C83 %711 мм1.2 м/с5 %
    09:00Ясно и безоблачно+26°C46 %713 мм2.4 м/с5 %
    12:00Небольшая облачность+30°C39 %712 мм2.1 м/с5 %
    15:00Облачно с прояснениями+33°C31 %711 мм2.6 м/с5 %
    18:00Ясно и безоблачно+28°C41 %710 мм2.3 м/с5 %
    21:00Ясно и безоблачно+23°C56 %710 мм1.9 м/с4 %
  • 10февраля
    Пятница
    +21°
    +33°
    Ясно и безоблачно
    ВремяПогодаТемператураВлажностьДавлениеВетер, м/сВероятность осадков
    00:00Ясно и безоблачно+22°C64 %711 мм1.7 м/с5 %
    03:00Ясно и безоблачно+19°C79 %710 мм1.8 м/с5 %
    06:00Ясно и безоблачно+19°C85 %711 мм1.4 м/с5 %
    09:00Ясно и безоблачно+26°C61 %713 мм2.8 м/с4 %
    12:00Ясно и безоблачно+31°C42 %712 мм2.5 м/с5 %
    15:00Ясно и безоблачно+33°C36 %710 мм2.4 м/с5 %
    18:00Ясно и безоблачно+30°C43 %709 мм2.3 м/с6 %
    21:00Ясно и безоблачно+26°C63 %711 мм3.1 м/с20 %
  • 11февраля
    Суббота
    +19°
    +32°
    Небольшая облачность и лёгкий дождик
    ВремяПогодаТемператураВлажностьДавлениеВетер, м/сВероятность осадков
    00:00Небольшая облачность+24°C76 %711 мм2.4 м/с17 %
    03:00Небольшая облачность+23°C81 %711 мм1.9 м/с7 %
    06:00Практически безоблачно+22°C88 %711 мм1.7 м/с5 %
    09:00Практически безоблачно+27°C62 %712 мм3.4 м/с7 %
    12:00Практически безоблачно+31°C49 %711 мм3.2 м/с4 %
    15:00Небольшая облачность и лёгкий дождик+31°C46 %710 мм3.0 м/с12 %
    18:00Небольшая облачность и лёгкий дождик+29°C65 %709 мм1.0 м/с17 %
    21:00Ясно и безоблачно+25°C59 %710 мм2.1 м/с17 %
Мы используем cookies
Соглашаюсь